Jeffrey M — WSX6846 — position and weather

sailwx.info

Track history (hours):
 
Tides and Currents Weather Stations Pressure Air Temp Water Temp Dewpoint Dewpoint Depression Visibility Wind Speed Wind Dir Waves Ship Positions

Jeffrey M

Owner: MANSON CONSTRUCTION COMPANY, SEATTLE, WA. More information available from US FCC via Universal Licensing System and Coast Guard Vessel Documentation Center.

Last reported at 2018-Feb-18 23:47 UTC. Time now 2018-Feb-22 09:18 UTC.
Position N 33°47' W 118°15'.

Length 26 m.

Type: Tug. MMSI: 366951730.

Date/timePositionNaut miles runAvg speedWind from/ knotsBaromVisibWave heightAir tempDewpointWater temp
2018-Feb-18 23:47N 33°47' W 118°15'2 6.6
2018-Feb-18 23:30N 33°45' W 118°16'3 6.3
2018-Feb-18 23:00N 33°42' W 118°16'510.3
2018-Feb-18 22:29N 33°43' W 118°22'510.2
2018-Feb-18 22:00N 33°45' W 118°28'5 9.9
2018-Feb-18 21:30N 33°47' W 118°33'5 9.9
2018-Feb-18 21:00N 33°50' W 118°38'510.1
2018-Feb-18 20:28N 33°52' W 118°44'510.0
2018-Feb-18 20:00N 33°55' W 118°49'5 9.8
2018-Feb-18 19:30N 33°57' W 118°54'5 9.6
2018-Feb-18 19:00N 33°59' W 118°59'5 9.6
2018-Feb-18 18:30N 34°02' W 119°04'5 9.7
2018-Feb-18 18:00N 34°04' W 119°09'5 9.6
2018-Feb-18 17:29N 34°08' W 119°13'5 9.5
2018-Feb-18 17:00N 34°12' W 119°16'4 7.1
2018-Feb-18 16:30N 34°15' W 119°16'0 0.9
2018-Feb-18 15:59N 34°15' W 119°17'0 0.4
2018-Feb-18 15:29N 34°15' W 119°16'0 0.5
2018-Feb-18 14:58N 34°15' W 119°16'0 0.0
2018-Feb-18 14:26N 34°15' W 119°16'0 0.0
2018-Feb-18 14:01N 34°15' W 119°16'0 0.0
2018-Feb-18 13:25N 34°15' W 119°16'0 0.0
2018-Feb-18 13:00N 34°15' W 119°16'0 0.0
2018-Feb-18 12:30N 34°15' W 119°16'3 6.4
2018-Feb-18 12:00N 34°12' W 119°16'5 8.7
2018-Feb-18 11:29N 34°08' W 119°13'4 8.9
2018-Feb-18 11:00N 34°05' W 119°10'5 9.5
2018-Feb-18 10:28N 34°02' W 119°05'510.1
2018-Feb-18 09:59N 33°60' W 118°60'510.3
2018-Feb-18 09:28N 33°57' W 118°54'510.3
2018-Feb-18 09:00N 33°55' W 118°49'510.1
2018-Feb-18 08:30N 33°52' W 118°44'510.2
2018-Feb-18 08:01N 33°50' W 118°38'1110.1
2018-Feb-18 06:52N 33°44' W 118°26'4 9.5
2018-Feb-18 06:29N 33°43' W 118°22'5 9.8
2018-Feb-18 06:01N 33°42' W 118°17'3 5.3
2018-Feb-18 05:30N 33°44' W 118°17'3 5.1
2018-Feb-18 05:00N 33°47' W 118°15'0 0.0
2018-Feb-18 04:30N 33°47' W 118°15'0 0.0
2018-Feb-18 04:00N 33°47' W 118°15'0 0.0
2018-Feb-18 03:30N 33°47' W 118°15'0 0.0
2018-Feb-18 03:00N 33°47' W 118°15'0 0.0
2018-Feb-18 02:30N 33°47' W 118°15'0 0.0
2018-Feb-18 02:00N 33°47' W 118°15'0 0.0
2018-Feb-18 01:30N 33°47' W 118°15'0 0.0
2018-Feb-18 00:59N 33°47' W 118°15'0 0.0
2018-Feb-18 00:29N 33°47' W 118°15'0 0.0
2018-Feb-18 00:00N 33°47' W 118°15'0 0.0
2018-Feb-17 23:30N 33°47' W 118°15'0 0.0
2018-Feb-17 23:00N 33°47' W 118°15'0 0.0
2018-Feb-17 22:30N 33°47' W 118°15'0 0.0
2018-Feb-17 22:00N 33°47' W 118°15'0 0.0
2018-Feb-17 21:30N 33°47' W 118°15'0 0.0
2018-Feb-17 21:00N 33°47' W 118°15'0 0.0
2018-Feb-17 20:27N 33°47' W 118°15'0 0.0
2018-Feb-17 20:01N 33°47' W 118°15'0 0.0
2018-Feb-17 19:30N 33°47' W 118°15'0 0.0
2018-Feb-17 19:00N 33°47' W 118°15'0 0.0
2018-Feb-17 18:30N 33°47' W 118°15'0 0.0
2018-Feb-17 18:00N 33°47' W 118°15'0 0.0
2018-Feb-17 17:30N 33°47' W 118°15'0 0.0
2018-Feb-17 17:00N 33°47' W 118°15'0 0.0
2018-Feb-17 16:30N 33°47' W 118°15'0 0.0
2018-Feb-17 16:00N 33°47' W 118°15'0 0.0
2018-Feb-17 15:30N 33°47' W 118°15'0 0.0
2018-Feb-17 15:00N 33°47' W 118°15'0 0.0
2018-Feb-17 14:31N 33°47' W 118°15'0 0.0
2018-Feb-17 13:58N 33°47' W 118°15'0 0.0
2018-Feb-17 13:24N 33°47' W 118°15'0 0.0
2018-Feb-17 13:00N 33°47' W 118°15'0 0.0
2018-Feb-17 12:30N 33°47' W 118°15'0 0.0
2018-Feb-17 12:00N 33°47' W 118°15'0 0.0
2018-Feb-17 11:30N 33°47' W 118°15'0 0.0
2018-Feb-17 11:00N 33°47' W 118°15'0 0.0
2018-Feb-17 10:30N 33°47' W 118°15'0 0.0
2018-Feb-17 10:00N 33°47' W 118°15'0 0.0
2018-Feb-17 09:30N 33°47' W 118°15'0 0.0
2018-Feb-17 09:00N 33°47' W 118°15'0 0.0
2018-Feb-17 08:30N 33°47' W 118°15'0 0.0
2018-Feb-17 08:00N 33°47' W 118°15'0 0.0
2018-Feb-17 07:30N 33°47' W 118°15'0 0.0
2018-Feb-17 07:00N 33°47' W 118°15'0 0.0
2018-Feb-17 06:30N 33°47' W 118°15'0 0.0
2018-Feb-17 06:00N 33°47' W 118°15'0 0.0
2018-Feb-17 05:30N 33°47' W 118°15'0 0.0
2018-Feb-17 05:00N 33°47' W 118°15'0 0.0
2018-Feb-17 04:30N 33°47' W 118°15'0 0.0
2018-Feb-17 04:01N 33°47' W 118°15'0 0.0
2018-Feb-17 03:31N 33°47' W 118°15'0 0.0
2018-Feb-17 03:00N 33°47' W 118°15'0 0.0
2018-Feb-17 02:30N 33°47' W 118°15'0 0.0
2018-Feb-17 02:00N 33°47' W 118°15'0 0.0
2018-Feb-17 01:30N 33°47' W 118°15'0 0.0
2018-Feb-17 01:00N 33°47' W 118°15'0 0.0
2018-Feb-17 00:30N 33°47' W 118°15'0 0.0
2018-Feb-17 00:00N 33°47' W 118°15'0 0.0
2018-Feb-16 23:30N 33°47' W 118°15'0 0.0
2018-Feb-16 23:00N 33°47' W 118°15'0 0.0
2018-Feb-16 22:30N 33°47' W 118°15'0 0.0
2018-Feb-16 22:00N 33°47' W 118°15'0 0.0
2018-Feb-16 21:31N 33°47' W 118°15'0 0.0
2018-Feb-16 21:00N 33°47' W 118°15'0 0.0
2018-Feb-16 20:31N 33°47' W 118°15'0 0.0
2018-Feb-16 20:00N 33°47' W 118°15'0 0.0
2018-Feb-16 19:30N 33°47' W 118°15'0 0.0
2018-Feb-16 19:00N 33°47' W 118°15'0 0.0
2018-Feb-16 18:30N 33°47' W 118°15'0 0.0
2018-Feb-16 18:00N 33°47' W 118°15'0 0.0
2018-Feb-16 17:30N 33°47' W 118°15'0 0.0
2018-Feb-16 17:00N 33°47' W 118°15'0 0.0
2018-Feb-16 16:30N 33°47' W 118°15'0 0.0
2018-Feb-16 16:00N 33°47' W 118°15'0 0.0
2018-Feb-16 15:30N 33°47' W 118°15'0 0.0
2018-Feb-16 14:59N 33°47' W 118°15'0 0.0
2018-Feb-16 14:30N 33°47' W 118°15'0 0.0
2018-Feb-16 14:00N 33°47' W 118°15'0 0.0
2018-Feb-16 13:31N 33°47' W 118°15'0 0.0
2018-Feb-16 13:00N 33°47' W 118°15'0 0.0
2018-Feb-16 12:30N 33°47' W 118°15'0 0.0
2018-Feb-16 12:00N 33°47' W 118°15'0 0.0
2018-Feb-16 11:31N 33°47' W 118°15'0 0.0
2018-Feb-16 11:01N 33°47' W 118°15'0 0.0
2018-Feb-16 10:30N 33°47' W 118°15'0 0.0
2018-Feb-16 10:00N 33°47' W 118°15'0 0.0
2018-Feb-16 09:30N 33°47' W 118°15'0 0.0
2018-Feb-16 09:00N 33°47' W 118°15'0 0.0
2018-Feb-16 08:30N 33°47' W 118°15'0 0.0
2018-Feb-16 08:00N 33°47' W 118°15'0 0.0
2018-Feb-16 07:31N 33°47' W 118°15'0 0.0
2018-Feb-16 07:00N 33°47' W 118°15'0 0.0
2018-Feb-16 06:30N 33°47' W 118°15'0 0.0
2018-Feb-16 06:00N 33°47' W 118°15'0 0.0
2018-Feb-16 05:30N 33°47' W 118°15'0 0.0
2018-Feb-16 05:00N 33°47' W 118°15'0 0.0
2018-Feb-16 04:30N 33°47' W 118°15'0 0.0
2018-Feb-16 04:00N 33°47' W 118°15'0 0.0
2018-Feb-16 03:30N 33°47' W 118°15'0 0.0
2018-Feb-16 03:01N 33°47' W 118°15'0 0.0
2018-Feb-16 02:30N 33°47' W 118°15'0 0.0
2018-Feb-16 02:00N 33°47' W 118°15'0 0.0
2018-Feb-16 01:30N 33°47' W 118°15'0 0.0
2018-Feb-16 01:00N 33°47' W 118°15'0 0.0
2018-Feb-16 00:30N 33°47' W 118°15'0 0.0
2018-Feb-16 00:00N 33°47' W 118°15'0 0.0
2018-Feb-15 23:30N 33°47' W 118°15'0 0.0
2018-Feb-15 23:00N 33°47' W 118°15'0 0.0
2018-Feb-15 22:30N 33°47' W 118°15'0 0.0
2018-Feb-15 22:01N 33°47' W 118°15'0 0.0
2018-Feb-15 21:30N 33°47' W 118°15'0 0.0
2018-Feb-15 21:00N 33°47' W 118°15'0 0.0
2018-Feb-15 20:30N 33°47' W 118°15'0 0.0
2018-Feb-15 19:59N 33°47' W 118°15'0 0.0
2018-Feb-15 19:30N 33°47' W 118°15'0 0.0
2018-Feb-15 19:00N 33°47' W 118°15'0 0.0
2018-Feb-15 18:30N 33°47' W 118°15'0 0.0
2018-Feb-15 18:00N 33°47' W 118°15'0 0.0
2018-Feb-15 17:30N 33°47' W 118°15'0 0.0
2018-Feb-15 17:01N 33°47' W 118°15'0 0.0
2018-Feb-15 16:30N 33°47' W 118°15'0 0.0
2018-Feb-15 16:00N 33°47' W 118°15'0 0.0
2018-Feb-15 15:30N 33°47' W 118°15'0 0.0
2018-Feb-15 15:00N 33°47' W 118°15'0 0.0
2018-Feb-15 14:30N 33°47' W 118°15'0 0.0
2018-Feb-15 14:00N 33°47' W 118°15'0 0.0
2018-Feb-15 13:30N 33°47' W 118°15'0 0.0
2018-Feb-15 13:00N 33°47' W 118°15'0 0.0
2018-Feb-15 12:30N 33°47' W 118°15'0 0.0
2018-Feb-15 12:00N 33°47' W 118°15'0 0.0
2018-Feb-15 11:28N 33°47' W 118°15'0 0.0
2018-Feb-15 11:00N 33°47' W 118°15'0 0.0
2018-Feb-15 10:30N 33°47' W 118°15'0 0.0
2018-Feb-15 10:00N 33°47' W 118°15'0 0.0
2018-Feb-15 09:31N 33°47' W 118°15'0 0.0
2018-Feb-15 09:00N 33°47' W 118°15'0 0.0
2018-Feb-15 08:30N 33°47' W 118°15'0 0.0
2018-Feb-15 08:00N 33°47' W 118°15'0 0.0
2018-Feb-15 07:29N 33°47' W 118°15'0 0.0
2018-Feb-15 07:00N 33°47' W 118°15'0 0.0
2018-Feb-15 06:30N 33°47' W 118°15'0 0.0
2018-Feb-15 06:01N 33°47' W 118°15'0 0.0
2018-Feb-15 05:30N 33°47' W 118°15'0 0.0
2018-Feb-15 05:00N 33°47' W 118°15'0 0.0
2018-Feb-15 04:30N 33°47' W 118°15'0 0.0
2018-Feb-15 04:00N 33°47' W 118°15'0 0.0
2018-Feb-15 03:30N 33°47' W 118°15'0 0.0
2018-Feb-15 03:00N 33°47' W 118°15'0 0.0
2018-Feb-15 02:31N 33°47' W 118°15'0 0.0
2018-Feb-15 02:00N 33°47' W 118°15'0 0.0
2018-Feb-15 01:30N 33°47' W 118°15'0 0.0
2018-Feb-15 01:00N 33°47' W 118°15'0 0.0
2018-Feb-15 00:30N 33°47' W 118°15'0 0.0
2018-Feb-15 00:00N 33°47' W 118°15'0 0.0
2018-Feb-14 23:30N 33°47' W 118°15'0 0.0
2018-Feb-14 23:00N 33°47' W 118°15'0 0.0
2018-Feb-14 22:30N 33°47' W 118°15'0 0.0
2018-Feb-14 22:00N 33°47' W 118°15'0 0.0
2018-Feb-14 21:30N 33°47' W 118°15'0 0.0
2018-Feb-14 21:00N 33°47' W 118°15'0 0.0
2018-Feb-14 20:30N 33°47' W 118°15'0 0.0
2018-Feb-14 20:00N 33°47' W 118°15'0 0.0
2018-Feb-14 19:30N 33°47' W 118°15'0 0.0
2018-Feb-14 18:59N 33°47' W 118°15'0 0.0
2018-Feb-14 18:30N 33°47' W 118°15'0 0.0
2018-Feb-14 18:00N 33°47' W 118°15'0 0.0
2018-Feb-14 17:30N 33°47' W 118°15'0 0.0
2018-Feb-14 17:00N 33°47' W 118°15'0 0.0
2018-Feb-14 16:30N 33°47' W 118°15'0 0.0
2018-Feb-14 16:00N 33°47' W 118°15'0 0.0
2018-Feb-14 15:30N 33°47' W 118°15'0 0.0
2018-Feb-14 15:00N 33°47' W 118°15'0 0.0
2018-Feb-14 14:30N 33°47' W 118°15'0 0.0
2018-Feb-14 14:00N 33°47' W 118°15'0 0.0
2018-Feb-14 13:30N 33°47' W 118°15'0 0.0
2018-Feb-14 13:01N 33°47' W 118°15'0 0.0
2018-Feb-14 12:30N 33°47' W 118°15'0 0.0
2018-Feb-14 12:00N 33°47' W 118°15'0 0.0
2018-Feb-14 11:30N 33°47' W 118°15'0 0.0
2018-Feb-14 11:00N 33°47' W 118°15'0 0.0
2018-Feb-14 10:30N 33°47' W 118°15'0 0.0
2018-Feb-14 10:00N 33°47' W 118°15'0 0.0
2018-Feb-14 09:30N 33°47' W 118°15'0 0.0
2018-Feb-14 09:00N 33°47' W 118°15'0 0.0
2018-Feb-14 08:30N 33°47' W 118°15'0 0.0
2018-Feb-14 07:59N 33°47' W 118°15'0 0.0
2018-Feb-14 07:30N 33°47' W 118°15'0 0.0
2018-Feb-14 07:00N 33°47' W 118°15'0 0.0
2018-Feb-14 06:30N 33°47' W 118°15'0 0.0
2018-Feb-14 06:00N 33°47' W 118°15'0 0.0
2018-Feb-14 05:31N 33°47' W 118°15'0 0.0
2018-Feb-14 04:59N 33°47' W 118°15'0 0.0
2018-Feb-14 04:30N 33°47' W 118°15'0 0.0
2018-Feb-14 04:00N 33°47' W 118°15'0 0.0
2018-Feb-14 03:30N 33°47' W 118°15'0 0.0
2018-Feb-14 03:00N 33°47' W 118°15'0 0.0
2018-Feb-14 02:30N 33°47' W 118°15'0 0.0
2018-Feb-14 02:00N 33°47' W 118°15'0 0.0
2018-Feb-14 01:29N 33°47' W 118°15'0 0.0
2018-Feb-14 01:00N 33°47' W 118°15'0 0.0
2018-Feb-14 00:30N 33°47' W 118°15'0 0.0
2018-Feb-14 00:00N 33°47' W 118°15'0 0.0
2018-Feb-13 23:30N 33°47' W 118°15'0 0.0
2018-Feb-13 23:00N 33°47' W 118°15'0 0.0
2018-Feb-13 22:30N 33°47' W 118°15'0 0.0
2018-Feb-13 22:00N 33°47' W 118°15'0 0.0
2018-Feb-13 21:30N 33°47' W 118°15'0 0.0
2018-Feb-13 20:57N 33°47' W 118°15'0 0.0
2018-Feb-13 20:30N 33°47' W 118°15'0 0.1
2018-Feb-13 20:00N 33°47' W 118°15'2 4.9
2018-Feb-13 19:30N 33°45' W 118°17'3 5.4
2018-Feb-13 19:00N 33°44' W 118°13'1 2.4
2018-Feb-13 18:30N 33°44' W 118°12'2 4.9
2018-Feb-13 18:00N 33°45' W 118°09'5 9.1
2018-Feb-13 17:30N 33°43' W 118°14'3 5.2
2018-Feb-13 17:00N 33°45' W 118°16'2 3.1
2018-Feb-13 16:30N 33°47' W 118°15'0 0.1
2018-Feb-13 16:00N 33°47' W 118°15'0 0.1
2018-Feb-13 15:30N 33°47' W 118°15'0 0.0
2018-Feb-13 15:00N 33°47' W 118°15'0 0.0
2018-Feb-13 14:30N 33°47' W 118°15'0 0.0
2018-Feb-13 14:00N 33°47' W 118°15'0 0.0
2018-Feb-13 13:30N 33°47' W 118°15'0 0.0
2018-Feb-13 12:59N 33°47' W 118°15'0 0.0
2018-Feb-13 12:30N 33°47' W 118°15'0 0.0
2018-Feb-13 12:00N 33°47' W 118°15'0 0.0
2018-Feb-13 11:30N 33°47' W 118°15'0 0.0
2018-Feb-13 11:00N 33°47' W 118°15'0 0.0
2018-Feb-13 10:30N 33°47' W 118°15'0 0.0
2018-Feb-13 10:00N 33°47' W 118°15'0 0.0
2018-Feb-13 09:30N 33°47' W 118°15'0 0.0
2018-Feb-13 08:59N 33°47' W 118°15'0 0.0
2018-Feb-13 08:31N 33°47' W 118°15'0 0.0
2018-Feb-13 08:00N 33°47' W 118°15'0 0.0
2018-Feb-13 07:30N 33°47' W 118°15'0 0.0
2018-Feb-13 07:00N 33°47' W 118°15'0 0.0
2018-Feb-13 06:30N 33°47' W 118°15'0 0.0
2018-Feb-13 06:00N 33°47' W 118°15'0 0.0
2018-Feb-13 05:30N 33°47' W 118°15'0 0.0
2018-Feb-13 05:01N 33°47' W 118°15'0 0.0
2018-Feb-13 04:30N 33°47' W 118°15'0 0.0
2018-Feb-13 04:00N 33°47' W 118°15'0 0.0
2018-Feb-13 03:30N 33°47' W 118°15'1 1.5
2018-Feb-13 03:00N 33°46' W 118°15'2 3.2
2018-Feb-13 02:30N 33°46' W 118°13'0 0.1
2018-Feb-13 02:00N 33°46' W 118°13'2 4.8
2018-Feb-13 01:30N 33°44' W 118°13'1 2.1
2018-Feb-13 01:00N 33°43' W 118°14'0 0.1
2018-Feb-13 00:30N 33°43' W 118°14'0 0.1
2018-Feb-13 00:00N 33°43' W 118°14'0 0.2
2018-Feb-12 23:30N 33°43' W 118°14'0 0.1
2018-Feb-12 23:00N 33°43' W 118°14'0 0.0
2018-Feb-12 22:30N 33°43' W 118°14'0 0.0
2018-Feb-12 22:00N 33°43' W 118°14'0 0.0
2018-Feb-12 21:30N 33°43' W 118°14'0 0.0
2018-Feb-12 21:00N 33°43' W 118°14'0 0.0
2018-Feb-12 20:30N 33°43' W 118°14'0 0.0
2018-Feb-12 20:00N 33°43' W 118°14'0 0.1
2018-Feb-12 19:30N 33°43' W 118°14'0 0.2
2018-Feb-12 19:00N 33°43' W 118°14'0 0.1
2018-Feb-12 18:30N 33°43' W 118°14'0 0.0
2018-Feb-12 18:00N 33°43' W 118°14'0 0.0
2018-Feb-12 17:30N 33°43' W 118°14'0 0.0
2018-Feb-12 17:00N 33°43' W 118°14'0 0.0
2018-Feb-12 16:31N 33°43' W 118°14'0 0.1
2018-Feb-12 16:00N 33°43' W 118°14'0 0.0
2018-Feb-12 15:30N 33°43' W 118°14'0 0.0
2018-Feb-12 15:01N 33°43' W 118°14'2 4.6
2018-Feb-12 14:29N 33°45' W 118°13'0 0.0
2018-Feb-12 14:00N 33°45' W 118°13'1 2.2
2018-Feb-12 13:30N 33°46' W 118°14'1 0.0
2018-Feb-10 11:52N 33°46' W 118°15'3 7.0
2018-Feb-10 11:30N 33°44' W 118°16'3 4.8
2018-Feb-10 10:59N 33°42' W 118°18'6 9.6
2018-Feb-10 10:20N 33°44' W 118°25'4 9.6
2018-Feb-10 09:56N 33°46' W 118°29'4 9.4
2018-Feb-10 09:30N 33°48' W 118°33'5 9.3
2018-Feb-10 09:00N 33°50' W 118°38'5 9.5
2018-Feb-10 08:30N 33°52' W 118°43'5 9.6
2018-Feb-10 07:59N 33°55' W 118°49'5 9.7
2018-Feb-10 07:30N 33°57' W 118°54'5 9.2
2018-Feb-10 07:00N 33°59' W 118°58'5 9.4
2018-Feb-10 06:30N 34°01' W 119°03'5 9.8
2018-Feb-10 06:00N 34°04' W 119°09'5 9.5
2018-Feb-10 05:30N 34°07' W 119°13'5 9.6
2018-Feb-10 05:00N 34°11' W 119°16'4 7.7
2018-Feb-10 04:30N 34°15' W 119°16'1 1.0
2018-Feb-10 04:00N 34°14' W 119°16'0 0.0
2018-Feb-10 03:30N 34°14' W 119°16'1 1.5
2018-Feb-10 03:00N 34°15' W 119°16'0 0.5
2018-Feb-10 02:30N 34°15' W 119°16'1 1.2
2018-Feb-10 02:00N 34°14' W 119°16'0 0.0
2018-Feb-10 01:29N 34°14' W 119°16'1 1.5
2018-Feb-10 00:59N 34°15' W 119°16'0 0.0
2018-Feb-10 00:30N 34°15' W 119°16'1 1.5
2018-Feb-10 00:00N 34°14' W 119°16'0 0.0
2018-Feb-09 23:28N 34°14' W 119°16'1 1.7
2018-Feb-09 23:00N 34°15' W 119°16'0 0.4
2018-Feb-09 22:45N 34°15' W 119°16'1 0.1
2018-Feb-09 17:00N 34°14' W 119°16'1 0.1
2018-Feb-09 10:00N 34°15' W 119°16'0 0.0
2018-Feb-09 02:00N 34°15' W 119°16'0 0.0
2018-Feb-09 01:30N 34°15' W 119°16'  
Track history (hours):
 
Tides and Currents Weather Stations Pressure Air Temp Water Temp Dewpoint Dewpoint Depression Visibility Wind Speed Wind Dir Waves Ship Positions

Jeffrey M

Owner: MANSON CONSTRUCTION COMPANY, SEATTLE, WA. More information available from US FCC via Universal Licensing System and Coast Guard Vessel Documentation Center.

Last reported at 2018-Feb-18 23:47 UTC. Time now 2018-Feb-22 09:18 UTC.
Position N 33°47' W 118°15'.

Length 26 m.

Type: Tug. MMSI: 366951730.

Date/timePositionNaut miles runAvg speedWind from/ knotsBaromVisibWave heightAir tempDewpointWater temp
2018-Feb-18 23:47N 33°47' W 118°15'2 6.6
2018-Feb-18 23:30N 33°45' W 118°16'3 6.3
2018-Feb-18 23:00N 33°42' W 118°16'510.3
2018-Feb-18 22:29N 33°43' W 118°22'510.2
2018-Feb-18 22:00N 33°45' W 118°28'5 9.9
2018-Feb-18 21:30N 33°47' W 118°33'5 9.9
2018-Feb-18 21:00N 33°50' W 118°38'510.1
2018-Feb-18 20:28N 33°52' W 118°44'510.0
2018-Feb-18 20:00N 33°55' W 118°49'5 9.8
2018-Feb-18 19:30N 33°57' W 118°54'5 9.6
2018-Feb-18 19:00N 33°59' W 118°59'5 9.6
2018-Feb-18 18:30N 34°02' W 119°04'5 9.7
2018-Feb-18 18:00N 34°04' W 119°09'5 9.6
2018-Feb-18 17:29N 34°08' W 119°13'5 9.5
2018-Feb-18 17:00N 34°12' W 119°16'4 7.1
2018-Feb-18 16:30N 34°15' W 119°16'0 0.9
2018-Feb-18 15:59N 34°15' W 119°17'0 0.4
2018-Feb-18 15:29N 34°15' W 119°16'0 0.5
2018-Feb-18 14:58N 34°15' W 119°16'0 0.0
2018-Feb-18 14:26N 34°15' W 119°16'0 0.0
2018-Feb-18 14:01N 34°15' W 119°16'0 0.0
2018-Feb-18 13:25N 34°15' W 119°16'0 0.0
2018-Feb-18 13:00N 34°15' W 119°16'0 0.0
2018-Feb-18 12:30N 34°15' W 119°16'3 6.4
2018-Feb-18 12:00N 34°12' W 119°16'5 8.7
2018-Feb-18 11:29N 34°08' W 119°13'4 8.9
2018-Feb-18 11:00N 34°05' W 119°10'5 9.5
2018-Feb-18 10:28N 34°02' W 119°05'510.1
2018-Feb-18 09:59N 33°60' W 118°60'510.3
2018-Feb-18 09:28N 33°57' W 118°54'510.3
2018-Feb-18 09:00N 33°55' W 118°49'510.1
2018-Feb-18 08:30N 33°52' W 118°44'510.2
2018-Feb-18 08:01N 33°50' W 118°38'1110.1
2018-Feb-18 06:52N 33°44' W 118°26'4 9.5
2018-Feb-18 06:29N 33°43' W 118°22'5 9.8
2018-Feb-18 06:01N 33°42' W 118°17'3 5.3
2018-Feb-18 05:30N 33°44' W 118°17'3 5.1
2018-Feb-18 05:00N 33°47' W 118°15'0 0.0
2018-Feb-18 04:30N 33°47' W 118°15'0 0.0
2018-Feb-18 04:00N 33°47' W 118°15'0 0.0
2018-Feb-18 03:30N 33°47' W 118°15'0 0.0
2018-Feb-18 03:00N 33°47' W 118°15'0 0.0
2018-Feb-18 02:30N 33°47' W 118°15'0 0.0
2018-Feb-18 02:00N 33°47' W 118°15'0 0.0
2018-Feb-18 01:30N 33°47' W 118°15'0 0.0
2018-Feb-18 00:59N 33°47' W 118°15'0 0.0
2018-Feb-18 00:29N 33°47' W 118°15'0 0.0
2018-Feb-18 00:00N 33°47' W 118°15'0 0.0
2018-Feb-17 23:30N 33°47' W 118°15'0 0.0
2018-Feb-17 23:00N 33°47' W 118°15'0 0.0
2018-Feb-17 22:30N 33°47' W 118°15'0 0.0
2018-Feb-17 22:00N 33°47' W 118°15'0 0.0
2018-Feb-17 21:30N 33°47' W 118°15'0 0.0
2018-Feb-17 21:00N 33°47' W 118°15'0 0.0
2018-Feb-17 20:27N 33°47' W 118°15'0 0.0
2018-Feb-17 20:01N 33°47' W 118°15'0 0.0
2018-Feb-17 19:30N 33°47' W 118°15'0 0.0
2018-Feb-17 19:00N 33°47' W 118°15'0 0.0
2018-Feb-17 18:30N 33°47' W 118°15'0 0.0
2018-Feb-17 18:00N 33°47' W 118°15'0 0.0
2018-Feb-17 17:30N 33°47' W 118°15'0 0.0
2018-Feb-17 17:00N 33°47' W 118°15'0 0.0
2018-Feb-17 16:30N 33°47' W 118°15'0 0.0
2018-Feb-17 16:00N 33°47' W 118°15'0 0.0
2018-Feb-17 15:30N 33°47' W 118°15'0 0.0
2018-Feb-17 15:00N 33°47' W 118°15'0 0.0
2018-Feb-17 14:31N 33°47' W 118°15'0 0.0
2018-Feb-17 13:58N 33°47' W 118°15'0 0.0
2018-Feb-17 13:24N 33°47' W 118°15'0 0.0
2018-Feb-17 13:00N 33°47' W 118°15'0 0.0
2018-Feb-17 12:30N 33°47' W 118°15'0 0.0
2018-Feb-17 12:00N 33°47' W 118°15'0 0.0
2018-Feb-17 11:30N 33°47' W 118°15'0 0.0
2018-Feb-17 11:00N 33°47' W 118°15'0 0.0
2018-Feb-17 10:30N 33°47' W 118°15'0 0.0
2018-Feb-17 10:00N 33°47' W 118°15'0 0.0
2018-Feb-17 09:30N 33°47' W 118°15'0 0.0
2018-Feb-17 09:00N 33°47' W 118°15'0 0.0
2018-Feb-17 08:30N 33°47' W 118°15'0 0.0
2018-Feb-17 08:00N 33°47' W 118°15'0 0.0
2018-Feb-17 07:30N 33°47' W 118°15'0 0.0
2018-Feb-17 07:00N 33°47' W 118°15'0 0.0
2018-Feb-17 06:30N 33°47' W 118°15'0 0.0
2018-Feb-17 06:00N 33°47' W 118°15'0 0.0
2018-Feb-17 05:30N 33°47' W 118°15'0 0.0
2018-Feb-17 05:00N 33°47' W 118°15'0 0.0
2018-Feb-17 04:30N 33°47' W 118°15'0 0.0
2018-Feb-17 04:01N 33°47' W 118°15'0 0.0
2018-Feb-17 03:31N 33°47' W 118°15'0 0.0
2018-Feb-17 03:00N 33°47' W 118°15'0 0.0
2018-Feb-17 02:30N 33°47' W 118°15'0 0.0
2018-Feb-17 02:00N 33°47' W 118°15'0 0.0
2018-Feb-17 01:30N 33°47' W 118°15'0 0.0
2018-Feb-17 01:00N 33°47' W 118°15'0 0.0
2018-Feb-17 00:30N 33°47' W 118°15'0 0.0
2018-Feb-17 00:00N 33°47' W 118°15'0 0.0
2018-Feb-16 23:30N 33°47' W 118°15'0 0.0
2018-Feb-16 23:00N 33°47' W 118°15'0 0.0
2018-Feb-16 22:30N 33°47' W 118°15'0 0.0
2018-Feb-16 22:00N 33°47' W 118°15'0 0.0
2018-Feb-16 21:31N 33°47' W 118°15'0 0.0
2018-Feb-16 21:00N 33°47' W 118°15'0 0.0
2018-Feb-16 20:31N 33°47' W 118°15'0 0.0
2018-Feb-16 20:00N 33°47' W 118°15'0 0.0
2018-Feb-16 19:30N 33°47' W 118°15'0 0.0
2018-Feb-16 19:00N 33°47' W 118°15'0 0.0
2018-Feb-16 18:30N 33°47' W 118°15'0 0.0
2018-Feb-16 18:00N 33°47' W 118°15'0 0.0
2018-Feb-16 17:30N 33°47' W 118°15'0 0.0
2018-Feb-16 17:00N 33°47' W 118°15'0 0.0
2018-Feb-16 16:30N 33°47' W 118°15'0 0.0
2018-Feb-16 16:00N 33°47' W 118°15'0 0.0
2018-Feb-16 15:30N 33°47' W 118°15'0 0.0
2018-Feb-16 14:59N 33°47' W 118°15'0 0.0
2018-Feb-16 14:30N 33°47' W 118°15'0 0.0
2018-Feb-16 14:00N 33°47' W 118°15'0 0.0
2018-Feb-16 13:31N 33°47' W 118°15'0 0.0
2018-Feb-16 13:00N 33°47' W 118°15'0 0.0
2018-Feb-16 12:30N 33°47' W 118°15'0 0.0
2018-Feb-16 12:00N 33°47' W 118°15'0 0.0
2018-Feb-16 11:31N 33°47' W 118°15'0 0.0
2018-Feb-16 11:01N 33°47' W 118°15'0 0.0
2018-Feb-16 10:30N 33°47' W 118°15'0 0.0
2018-Feb-16 10:00N 33°47' W 118°15'0 0.0
2018-Feb-16 09:30N 33°47' W 118°15'0 0.0
2018-Feb-16 09:00N 33°47' W 118°15'0 0.0
2018-Feb-16 08:30N 33°47' W 118°15'0 0.0
2018-Feb-16 08:00N 33°47' W 118°15'0 0.0
2018-Feb-16 07:31N 33°47' W 118°15'0 0.0
2018-Feb-16 07:00N 33°47' W 118°15'0 0.0
2018-Feb-16 06:30N 33°47' W 118°15'0 0.0
2018-Feb-16 06:00N 33°47' W 118°15'0 0.0
2018-Feb-16 05:30N 33°47' W 118°15'0 0.0
2018-Feb-16 05:00N 33°47' W 118°15'0 0.0
2018-Feb-16 04:30N 33°47' W 118°15'0 0.0
2018-Feb-16 04:00N 33°47' W 118°15'0 0.0
2018-Feb-16 03:30N 33°47' W 118°15'0 0.0
2018-Feb-16 03:01N 33°47' W 118°15'0 0.0
2018-Feb-16 02:30N 33°47' W 118°15'0 0.0
2018-Feb-16 02:00N 33°47' W 118°15'0 0.0
2018-Feb-16 01:30N 33°47' W 118°15'0 0.0
2018-Feb-16 01:00N 33°47' W 118°15'0 0.0
2018-Feb-16 00:30N 33°47' W 118°15'0 0.0
2018-Feb-16 00:00N 33°47' W 118°15'0 0.0
2018-Feb-15 23:30N 33°47' W 118°15'0 0.0
2018-Feb-15 23:00N 33°47' W 118°15'0 0.0
2018-Feb-15 22:30N 33°47' W 118°15'0 0.0
2018-Feb-15 22:01N 33°47' W 118°15'0 0.0
2018-Feb-15 21:30N 33°47' W 118°15'0 0.0
2018-Feb-15 21:00N 33°47' W 118°15'0 0.0
2018-Feb-15 20:30N 33°47' W 118°15'0 0.0
2018-Feb-15 19:59N 33°47' W 118°15'0 0.0
2018-Feb-15 19:30N 33°47' W 118°15'0 0.0
2018-Feb-15 19:00N 33°47' W 118°15'0 0.0
2018-Feb-15 18:30N 33°47' W 118°15'0 0.0
2018-Feb-15 18:00N 33°47' W 118°15'0 0.0
2018-Feb-15 17:30N 33°47' W 118°15'0 0.0
2018-Feb-15 17:01N 33°47' W 118°15'0 0.0
2018-Feb-15 16:30N 33°47' W 118°15'0 0.0
2018-Feb-15 16:00N 33°47' W 118°15'0 0.0
2018-Feb-15 15:30N 33°47' W 118°15'0 0.0
2018-Feb-15 15:00N 33°47' W 118°15'0 0.0
2018-Feb-15 14:30N 33°47' W 118°15'0 0.0
2018-Feb-15 14:00N 33°47' W 118°15'0 0.0
2018-Feb-15 13:30N 33°47' W 118°15'0 0.0
2018-Feb-15 13:00N 33°47' W 118°15'0 0.0
2018-Feb-15 12:30N 33°47' W 118°15'0 0.0
2018-Feb-15 12:00N 33°47' W 118°15'0 0.0
2018-Feb-15 11:28N 33°47' W 118°15'0 0.0
2018-Feb-15 11:00N 33°47' W 118°15'0 0.0
2018-Feb-15 10:30N 33°47' W 118°15'0 0.0
2018-Feb-15 10:00N 33°47' W 118°15'0 0.0
2018-Feb-15 09:31N 33°47' W 118°15'0 0.0
2018-Feb-15 09:00N 33°47' W 118°15'0 0.0
2018-Feb-15 08:30N 33°47' W 118°15'0 0.0
2018-Feb-15 08:00N 33°47' W 118°15'0 0.0
2018-Feb-15 07:29N 33°47' W 118°15'0 0.0
2018-Feb-15 07:00N 33°47' W 118°15'0 0.0
2018-Feb-15 06:30N 33°47' W 118°15'0 0.0
2018-Feb-15 06:01N 33°47' W 118°15'0 0.0
2018-Feb-15 05:30N 33°47' W 118°15'0 0.0
2018-Feb-15 05:00N 33°47' W 118°15'0 0.0
2018-Feb-15 04:30N 33°47' W 118°15'0 0.0
2018-Feb-15 04:00N 33°47' W 118°15'0 0.0
2018-Feb-15 03:30N 33°47' W 118°15'0 0.0
2018-Feb-15 03:00N 33°47' W 118°15'0 0.0
2018-Feb-15 02:31N 33°47' W 118°15'0 0.0
2018-Feb-15 02:00N 33°47' W 118°15'0 0.0
2018-Feb-15 01:30N 33°47' W 118°15'0 0.0
2018-Feb-15 01:00N 33°47' W 118°15'0 0.0
2018-Feb-15 00:30N 33°47' W 118°15'0 0.0
2018-Feb-15 00:00N 33°47' W 118°15'0 0.0
2018-Feb-14 23:30N 33°47' W 118°15'0 0.0
2018-Feb-14 23:00N 33°47' W 118°15'0 0.0
2018-Feb-14 22:30N 33°47' W 118°15'0 0.0
2018-Feb-14 22:00N 33°47' W 118°15'0 0.0
2018-Feb-14 21:30N 33°47' W 118°15'0 0.0
2018-Feb-14 21:00N 33°47' W 118°15'0 0.0
2018-Feb-14 20:30N 33°47' W 118°15'0 0.0
2018-Feb-14 20:00N 33°47' W 118°15'0 0.0
2018-Feb-14 19:30N 33°47' W 118°15'0 0.0
2018-Feb-14 18:59N 33°47' W 118°15'0 0.0
2018-Feb-14 18:30N 33°47' W 118°15'0 0.0
2018-Feb-14 18:00N 33°47' W 118°15'0 0.0
2018-Feb-14 17:30N 33°47' W 118°15'0 0.0
2018-Feb-14 17:00N 33°47' W 118°15'0 0.0
2018-Feb-14 16:30N 33°47' W 118°15'0 0.0
2018-Feb-14 16:00N 33°47' W 118°15'0 0.0
2018-Feb-14 15:30N 33°47' W 118°15'0 0.0
2018-Feb-14 15:00N 33°47' W 118°15'0 0.0
2018-Feb-14 14:30N 33°47' W 118°15'0 0.0
2018-Feb-14 14:00N 33°47' W 118°15'0 0.0
2018-Feb-14 13:30N 33°47' W 118°15'0 0.0
2018-Feb-14 13:01N 33°47' W 118°15'0 0.0
2018-Feb-14 12:30N 33°47' W 118°15'0 0.0
2018-Feb-14 12:00N 33°47' W 118°15'0 0.0
2018-Feb-14 11:30N 33°47' W 118°15'0 0.0
2018-Feb-14 11:00N 33°47' W 118°15'0 0.0
2018-Feb-14 10:30N 33°47' W 118°15'0 0.0
2018-Feb-14 10:00N 33°47' W 118°15'0 0.0
2018-Feb-14 09:30N 33°47' W 118°15'0 0.0
2018-Feb-14 09:00N 33°47' W 118°15'0 0.0
2018-Feb-14 08:30N 33°47' W 118°15'0 0.0
2018-Feb-14 07:59N 33°47' W 118°15'0 0.0
2018-Feb-14 07:30N 33°47' W 118°15'0 0.0
2018-Feb-14 07:00N 33°47' W 118°15'0 0.0
2018-Feb-14 06:30N 33°47' W 118°15'0 0.0
2018-Feb-14 06:00N 33°47' W 118°15'0 0.0
2018-Feb-14 05:31N 33°47' W 118°15'0 0.0
2018-Feb-14 04:59N 33°47' W 118°15'0 0.0
2018-Feb-14 04:30N 33°47' W 118°15'0 0.0
2018-Feb-14 04:00N 33°47' W 118°15'0 0.0
2018-Feb-14 03:30N 33°47' W 118°15'0 0.0
2018-Feb-14 03:00N 33°47' W 118°15'0 0.0
2018-Feb-14 02:30N 33°47' W 118°15'0 0.0
2018-Feb-14 02:00N 33°47' W 118°15'0 0.0
2018-Feb-14 01:29N 33°47' W 118°15'0 0.0
2018-Feb-14 01:00N 33°47' W 118°15'0 0.0
2018-Feb-14 00:30N 33°47' W 118°15'0 0.0
2018-Feb-14 00:00N 33°47' W 118°15'0 0.0
2018-Feb-13 23:30N 33°47' W 118°15'0 0.0
2018-Feb-13 23:00N 33°47' W 118°15'0 0.0
2018-Feb-13 22:30N 33°47' W 118°15'0 0.0
2018-Feb-13 22:00N 33°47' W 118°15'0 0.0
2018-Feb-13 21:30N 33°47' W 118°15'0 0.0
2018-Feb-13 20:57N 33°47' W 118°15'0 0.0
2018-Feb-13 20:30N 33°47' W 118°15'0 0.1
2018-Feb-13 20:00N 33°47' W 118°15'2 4.9
2018-Feb-13 19:30N 33°45' W 118°17'3 5.4
2018-Feb-13 19:00N 33°44' W 118°13'1 2.4
2018-Feb-13 18:30N 33°44' W 118°12'2 4.9
2018-Feb-13 18:00N 33°45' W 118°09'5 9.1
2018-Feb-13 17:30N 33°43' W 118°14'3 5.2
2018-Feb-13 17:00N 33°45' W 118°16'2 3.1
2018-Feb-13 16:30N 33°47' W 118°15'0 0.1
2018-Feb-13 16:00N 33°47' W 118°15'0 0.1
2018-Feb-13 15:30N 33°47' W 118°15'0 0.0
2018-Feb-13 15:00N 33°47' W 118°15'0 0.0
2018-Feb-13 14:30N 33°47' W 118°15'0 0.0
2018-Feb-13 14:00N 33°47' W 118°15'0 0.0
2018-Feb-13 13:30N 33°47' W 118°15'0 0.0
2018-Feb-13 12:59N 33°47' W 118°15'0 0.0
2018-Feb-13 12:30N 33°47' W 118°15'0 0.0
2018-Feb-13 12:00N 33°47' W 118°15'0 0.0
2018-Feb-13 11:30N 33°47' W 118°15'0 0.0
2018-Feb-13 11:00N 33°47' W 118°15'0 0.0
2018-Feb-13 10:30N 33°47' W 118°15'0 0.0
2018-Feb-13 10:00N 33°47' W 118°15'0 0.0
2018-Feb-13 09:30N 33°47' W 118°15'0 0.0
2018-Feb-13 08:59N 33°47' W 118°15'0 0.0
2018-Feb-13 08:31N 33°47' W 118°15'0 0.0
2018-Feb-13 08:00N 33°47' W 118°15'0 0.0
2018-Feb-13 07:30N 33°47' W 118°15'0 0.0
2018-Feb-13 07:00N 33°47' W 118°15'0 0.0
2018-Feb-13 06:30N 33°47' W 118°15'0 0.0
2018-Feb-13 06:00N 33°47' W 118°15'0 0.0
2018-Feb-13 05:30N 33°47' W 118°15'0 0.0
2018-Feb-13 05:01N 33°47' W 118°15'0 0.0
2018-Feb-13 04:30N 33°47' W 118°15'0 0.0
2018-Feb-13 04:00N 33°47' W 118°15'0 0.0
2018-Feb-13 03:30N 33°47' W 118°15'1 1.5
2018-Feb-13 03:00N 33°46' W 118°15'2 3.2
2018-Feb-13 02:30N 33°46' W 118°13'0 0.1
2018-Feb-13 02:00N 33°46' W 118°13'2 4.8
2018-Feb-13 01:30N 33°44' W 118°13'1 2.1
2018-Feb-13 01:00N 33°43' W 118°14'0 0.1
2018-Feb-13 00:30N 33°43' W 118°14'0 0.1
2018-Feb-13 00:00N 33°43' W 118°14'0 0.2
2018-Feb-12 23:30N 33°43' W 118°14'0 0.1
2018-Feb-12 23:00N 33°43' W 118°14'0 0.0
2018-Feb-12 22:30N 33°43' W 118°14'0 0.0
2018-Feb-12 22:00N 33°43' W 118°14'0 0.0
2018-Feb-12 21:30N 33°43' W 118°14'0 0.0
2018-Feb-12 21:00N 33°43' W 118°14'0 0.0
2018-Feb-12 20:30N 33°43' W 118°14'0 0.0
2018-Feb-12 20:00N 33°43' W 118°14'0 0.1
2018-Feb-12 19:30N 33°43' W 118°14'0 0.2
2018-Feb-12 19:00N 33°43' W 118°14'0 0.1
2018-Feb-12 18:30N 33°43' W 118°14'0 0.0
2018-Feb-12 18:00N 33°43' W 118°14'0 0.0
2018-Feb-12 17:30N 33°43' W 118°14'0 0.0
2018-Feb-12 17:00N 33°43' W 118°14'0 0.0
2018-Feb-12 16:31N 33°43' W 118°14'0 0.1
2018-Feb-12 16:00N 33°43' W 118°14'0 0.0
2018-Feb-12 15:30N 33°43' W 118°14'0 0.0
2018-Feb-12 15:01N 33°43' W 118°14'2 4.6
2018-Feb-12 14:29N 33°45' W 118°13'0 0.0
2018-Feb-12 14:00N 33°45' W 118°13'1 2.2
2018-Feb-12 13:30N 33°46' W 118°14'1 0.0
2018-Feb-10 11:52N 33°46' W 118°15'3 7.0
2018-Feb-10 11:30N 33°44' W 118°16'3 4.8
2018-Feb-10 10:59N 33°42' W 118°18'6 9.6
2018-Feb-10 10:20N 33°44' W 118°25'4 9.6
2018-Feb-10 09:56N 33°46' W 118°29'4 9.4
2018-Feb-10 09:30N 33°48' W 118°33'5 9.3
2018-Feb-10 09:00N 33°50' W 118°38'5 9.5
2018-Feb-10 08:30N 33°52' W 118°43'5 9.6
2018-Feb-10 07:59N 33°55' W 118°49'5 9.7
2018-Feb-10 07:30N 33°57' W 118°54'5 9.2
2018-Feb-10 07:00N 33°59' W 118°58'5 9.4
2018-Feb-10 06:30N 34°01' W 119°03'5 9.8
2018-Feb-10 06:00N 34°04' W 119°09'5 9.5
2018-Feb-10 05:30N 34°07' W 119°13'5 9.6
2018-Feb-10 05:00N 34°11' W 119°16'4 7.7
2018-Feb-10 04:30N 34°15' W 119°16'1 1.0
2018-Feb-10 04:00N 34°14' W 119°16'0 0.0
2018-Feb-10 03:30N 34°14' W 119°16'1 1.5
2018-Feb-10 03:00N 34°15' W 119°16'0 0.5
2018-Feb-10 02:30N 34°15' W 119°16'1 1.2
2018-Feb-10 02:00N 34°14' W 119°16'0 0.0
2018-Feb-10 01:29N 34°14' W 119°16'1 1.5
2018-Feb-10 00:59N 34°15' W 119°16'0 0.0
2018-Feb-10 00:30N 34°15' W 119°16'1 1.5
2018-Feb-10 00:00N 34°14' W 119°16'0 0.0
2018-Feb-09 23:28N 34°14' W 119°16'1 1.7
2018-Feb-09 23:00N 34°15' W 119°16'0 0.4
2018-Feb-09 22:45N 34°15' W 119°16'1 0.1
2018-Feb-09 17:00N 34°14' W 119°16'1 0.1
2018-Feb-09 10:00N 34°15' W 119°16'0 0.0
2018-Feb-09 02:00N 34°15' W 119°16'0 0.0
2018-Feb-09 01:30N 34°15' W 119°16'  

Dump ship's entire track history